createdAt,value
2023-12-13T00:02:18.617Z,99526.50
2023-12-13T00:05:21.161Z,99522.06
2023-12-13T00:08:23.623Z,99511.75
2023-12-13T00:11:28.127Z,99512.63
2023-12-13T00:14:30.529Z,99514.31
2023-12-13T00:17:35.394Z,99496.88
2023-12-13T00:20:40.553Z,99471.69
2023-12-13T00:23:43.979Z,99470.84
2023-12-13T00:26:46.292Z,99472.56
2023-12-13T00:29:48.621Z,99457.81
2023-12-13T00:32:53.424Z,99458.84
2023-12-13T00:35:55.824Z,99457.94
2023-12-13T00:38:58.551Z,99452.81
2023-12-13T00:42:01.052Z,99450.34
2023-12-13T00:45:06.155Z,99459.91
2023-12-13T00:48:09.434Z,99452.03
2023-12-13T00:51:22.277Z,99458.06
2023-12-13T00:54:26.154Z,99450.44
2023-12-13T00:57:28.930Z,99441.72
2023-12-13T01:00:31.484Z,99442.50
2023-12-13T01:03:36.943Z,99445.91
2023-12-13T01:06:39.410Z,99435.44
2023-12-13T01:09:44.318Z,99440.03
2023-12-13T01:12:47.233Z,99429.56
2023-12-13T01:15:52.249Z,99421.81
2023-12-13T01:18:57.660Z,99405.34
2023-12-13T01:22:00.076Z,99406.88
2023-12-13T01:25:05.768Z,99402.63
2023-12-13T01:28:08.945Z,99394.84
2023-12-13T01:31:11.409Z,99395.69
2023-12-13T01:34:13.991Z,99386.09
2023-12-13T01:37:19.134Z,99387.72
2023-12-13T01:40:22.013Z,99372.19
2023-12-13T01:43:24.763Z,99384.19
2023-12-13T01:46:31.789Z,99374.78
2023-12-13T01:49:36.661Z,99360.06
2023-12-13T01:52:39.113Z,99362.66
2023-12-13T01:55:41.634Z,99353.16
2023-12-13T01:58:46.323Z,99342.56
2023-12-13T02:01:49.034Z,99343.38
2023-12-13T02:04:51.529Z,99341.63
2023-12-13T02:07:56.484Z,99341.78
2023-12-13T02:10:59.971Z,99327.16
2023-12-13T02:14:05.752Z,99324.72
2023-12-13T02:17:07.991Z,99320.03
2023-12-13T02:20:12.962Z,99310.53
2023-12-13T02:23:17.884Z,99311.81
2023-12-13T02:26:23.795Z,99304.09
2023-12-13T02:29:26.202Z,99298.56
2023-12-13T02:32:28.687Z,99302.59
2023-12-13T02:35:35.693Z,99291.56
2023-12-13T02:38:42.118Z,99281.06
2023-12-13T02:41:44.625Z,99275.00
2023-12-13T02:44:47.075Z,99273.13
2023-12-13T02:47:54.499Z,99268.34
2023-12-13T02:50:57.212Z,99267.25
2023-12-13T02:53:59.816Z,99262.94
2023-12-13T02:57:04.965Z,99251.69
2023-12-13T03:00:10.099Z,99239.41
2023-12-13T03:03:15.117Z,99243.84
2023-12-13T03:06:17.634Z,99252.22
2023-12-13T03:09:20.554Z,99274.53
2023-12-13T03:12:23.081Z,99268.97
2023-12-13T03:15:28.292Z,99268.84
2023-12-13T03:18:30.802Z,99263.59
2023-12-13T03:21:35.738Z,99259.47
2023-12-13T03:24:40.303Z,99255.06
2023-12-13T03:27:44.294Z,99251.47
2023-12-13T03:30:46.875Z,99258.59
2023-12-13T03:33:50.027Z,99242.94
2023-12-13T03:36:52.889Z,99240.53
2023-12-13T03:39:57.571Z,99244.66
2023-12-13T03:43:00.320Z,99231.13
2023-12-13T03:46:02.837Z,99229.13
2023-12-13T03:49:05.304Z,99221.50
2023-12-13T03:52:12.503Z,99210.16
2023-12-13T03:55:17.527Z,99203.31
2023-12-13T03:58:23.127Z,99199.09
2023-12-13T04:01:25.568Z,99189.53
2023-12-13T04:04:28.151Z,99187.09
2023-12-13T04:07:30.711Z,99185.38
2023-12-13T04:10:35.966Z,99196.50
2023-12-13T04:13:38.461Z,99195.38
2023-12-13T04:16:44.024Z,99188.47
2023-12-13T04:19:47.328Z,99197.03
2023-12-13T04:22:50.499Z,99184.13
2023-12-13T04:25:55.345Z,99194.72
2023-12-13T04:29:00.116Z,99177.41
2023-12-13T04:32:02.557Z,99186.84
2023-12-13T04:35:07.025Z,99176.50
2023-12-13T04:38:09.476Z,99162.47
2023-12-13T04:41:11.933Z,99170.22
2023-12-13T04:44:14.339Z,99177.00
2023-12-13T04:47:17.225Z,99177.00
2023-12-13T04:50:23.325Z,99173.72
2023-12-13T04:53:25.945Z,99171.31
2023-12-13T04:56:30.920Z,99164.28
2023-12-13T04:59:35.673Z,99166.13
2023-12-13T05:02:41.274Z,99168.47
2023-12-13T05:05:43.768Z,99169.38
2023-12-13T05:08:47.607Z,99160.59
2023-12-13T05:11:50.278Z,99170.00
2023-12-13T05:14:53.053Z,99176.88
2023-12-13T05:17:57.722Z,99176.88
2023-12-13T05:21:05.465Z,99188.81
2023-12-13T05:24:08.702Z,99186.41
2023-12-13T05:27:11.094Z,99181.22
2023-12-13T05:30:13.838Z,99176.72
2023-12-13T05:33:20.928Z,99167.28
2023-12-13T05:36:41.214Z,99160.34
2023-12-13T05:39:43.678Z,99173.00
2023-12-13T05:42:46.073Z,99179.00
2023-12-13T05:45:48.543Z,99171.47
2023-12-13T05:48:51.226Z,99160.16
2023-12-13T05:51:54.264Z,99154.41
2023-12-13T05:55:02.491Z,99149.97
2023-12-13T05:58:05.049Z,99141.34
2023-12-13T06:01:08.230Z,99144.81
2023-12-13T06:04:13.990Z,99135.28
2023-12-13T06:07:16.540Z,99141.28
2023-12-13T06:10:19.086Z,99135.09
2023-12-13T06:13:21.654Z,99136.94
2023-12-13T06:16:26.410Z,99135.09
2023-12-13T06:19:31.091Z,99128.91
2023-12-13T06:22:33.673Z,99120.97
2023-12-13T06:25:36.229Z,99117.63
2023-12-13T06:28:38.769Z,99115.03
2023-12-13T06:31:44.345Z,99113.53
2023-12-13T06:34:47.369Z,99120.44
2023-12-13T06:37:52.317Z,99126.50
2023-12-13T06:40:54.974Z,99136.88
2023-12-13T06:43:58.083Z,99136.28
2023-12-13T06:47:03.111Z,99132.88
2023-12-13T06:50:06.452Z,99144.00
2023-12-13T06:53:11.452Z,99134.63
2023-12-13T06:56:16.159Z,99136.28
2023-12-13T06:59:21.270Z,99139.94
2023-12-13T07:02:23.644Z,99139.97
2023-12-13T07:05:26.520Z,99150.47
2023-12-13T07:08:29.086Z,99143.44
2023-12-13T07:11:31.538Z,99133.09
2023-12-13T07:14:36.332Z,99125.56
2023-12-13T07:17:40.002Z,99136.97
2023-12-13T07:20:45.042Z,99132.44
2023-12-13T07:23:47.676Z,99138.56
2023-12-13T07:26:52.539Z,99126.28
2023-12-13T07:29:57.381Z,99129.75
2023-12-13T07:33:05.068Z,99129.00
2023-12-13T07:36:08.024Z,99133.28
2023-12-13T07:39:12.752Z,99137.03
2023-12-13T07:42:17.431Z,99123.84
2023-12-13T07:45:22.053Z,99121.38
2023-12-13T07:48:29.844Z,99121.25
2023-12-13T07:51:35.995Z,99126.38
2023-12-13T07:54:38.630Z,99116.66
2023-12-13T07:57:43.223Z,99119.97
2023-12-13T08:00:48.765Z,99127.50
2023-12-13T08:03:51.205Z,99104.91
2023-12-13T08:06:56.409Z,99110.22
2023-12-13T08:10:00.562Z,99097.13
2023-12-13T08:13:03.012Z,99099.78
2023-12-13T08:16:06.505Z,99096.31
2023-12-13T08:19:09.200Z,99085.38
2023-12-13T08:22:11.822Z,99084.66
2023-12-13T08:25:14.546Z,99083.06
2023-12-13T08:28:17.301Z,99086.75
2023-12-13T08:31:24.096Z,99084.19
2023-12-13T08:34:32.139Z,99083.47
2023-12-13T08:37:34.907Z,99074.16
2023-12-13T08:40:37.647Z,99081.69
2023-12-13T08:43:40.300Z,99082.69
2023-12-13T08:46:43.036Z,99081.81
2023-12-13T08:49:47.972Z,99087.16
2023-12-13T08:52:52.852Z,99087.69
2023-12-13T08:55:55.392Z,99082.47
2023-12-13T08:58:58.165Z,99084.19
2023-12-13T09:02:00.683Z,99092.00
2023-12-13T09:05:03.151Z,99085.13
2023-12-13T09:08:06.131Z,99082.59
2023-12-13T09:11:11.540Z,99087.88
2023-12-13T09:14:14.029Z,99077.44
2023-12-13T09:17:19.547Z,99079.13
2023-12-13T09:20:22.103Z,99074.09
2023-12-13T09:23:25.309Z,99080.22
2023-12-13T09:26:27.965Z,99067.97
2023-12-13T09:29:30.337Z,99067.03
2023-12-13T09:32:34.616Z,99087.06
2023-12-13T09:35:37.206Z,99085.28
2023-12-13T09:38:39.632Z,99089.78
2023-12-13T09:41:54.607Z,99079.53
2023-12-13T09:44:57.269Z,99079.91
2023-12-13T09:48:03.594Z,99075.66
2023-12-13T09:51:06.440Z,99081.06
2023-12-13T09:54:08.955Z,99076.66
2023-12-13T09:57:11.458Z,99083.72
2023-12-13T10:00:14.377Z,99089.63
2023-12-13T10:03:19.417Z,99077.50
2023-12-13T10:06:22.066Z,99075.66
2023-12-13T10:09:28.712Z,99078.28
2023-12-13T10:12:35.283Z,99070.53
2023-12-13T10:15:38.935Z,99076.56
2023-12-13T10:18:42.486Z,99070.63
2023-12-13T10:21:47.417Z,99067.22
2023-12-13T10:24:49.855Z,99068.03
2023-12-13T10:27:53.449Z,99052.75
2023-12-13T10:30:58.178Z,99049.53
2023-12-13T10:34:01.095Z,99048.69
2023-12-13T10:37:03.533Z,99041.59
2023-12-13T10:40:08.678Z,99038.44
2023-12-13T10:43:13.872Z,99036.41
2023-12-13T10:46:17.456Z,99023.72
2023-12-13T10:49:22.166Z,99028.22
2023-12-13T10:52:27.763Z,99024.00
2023-12-13T10:55:30.408Z,99019.31
2023-12-13T10:58:32.983Z,99013.44
2023-12-13T11:01:35.534Z,99003.59
2023-12-13T11:04:37.977Z,98999.59
2023-12-13T11:07:45.487Z,98995.88
2023-12-13T11:11:12.094Z,98997.72
2023-12-13T11:14:16.910Z,98985.84
2023-12-13T11:17:21.081Z,98983.00
2023-12-13T11:20:24.337Z,98983.75
2023-12-13T11:23:29.851Z,98974.06
2023-12-13T11:26:35.064Z,98973.09
2023-12-13T11:29:37.503Z,98970.72
2023-12-13T11:32:44.630Z,98962.31
2023-12-13T11:35:47.724Z,98959.81
2023-12-13T11:38:55.509Z,98946.75
2023-12-13T11:42:03.335Z,98949.34
2023-12-13T11:45:06.676Z,98959.03
2023-12-13T11:48:11.622Z,98952.75
2023-12-13T11:51:14.071Z,98959.72
2023-12-13T11:54:17.077Z,98952.09
2023-12-13T11:57:20.175Z,98950.88
2023-12-13T12:00:22.908Z,98944.25
2023-12-13T12:03:28.175Z,98952.75
2023-12-13T12:06:30.711Z,98944.31
2023-12-13T12:09:33.535Z,98941.63
2023-12-13T12:12:38.520Z,98953.75
2023-12-13T12:15:45.448Z,98939.34
2023-12-13T12:18:48.414Z,98948.66
2023-12-13T12:21:51.331Z,98950.59
2023-12-13T12:24:57.171Z,98953.19
2023-12-13T12:28:02.600Z,98958.22
2023-12-13T12:31:05.130Z,98968.75
2023-12-13T12:34:07.666Z,98975.59
2023-12-13T12:37:13.127Z,98971.06
2023-12-13T12:40:19.471Z,98972.53
2023-12-13T12:43:24.827Z,98978.88
2023-12-13T12:46:27.806Z,98984.78
2023-12-13T12:49:30.366Z,98983.75
2023-12-13T12:52:38.266Z,98986.47
2023-12-13T12:55:41.755Z,98982.53
2023-12-13T12:58:47.061Z,98967.91
2023-12-13T13:01:52.015Z,98969.56
2023-12-13T13:04:54.600Z,98961.16
2023-12-13T13:07:59.985Z,98956.00
2023-12-13T13:11:04.877Z,98954.16
2023-12-13T13:14:08.198Z,98959.63
2023-12-13T13:17:10.963Z,98967.31
2023-12-13T13:20:18.940Z,98956.06
2023-12-13T13:23:21.414Z,98953.47
2023-12-13T13:26:23.932Z,98943.16
2023-12-13T13:29:26.459Z,98949.84
2023-12-13T13:32:29.411Z,98953.47
2023-12-13T13:35:34.879Z,98951.63
2023-12-13T13:38:37.323Z,98940.50
2023-12-13T13:41:40.398Z,98937.34
2023-12-13T13:44:42.859Z,98936.47
2023-12-13T13:47:45.413Z,98935.50
2023-12-13T13:50:51.696Z,98941.53
2023-12-13T13:53:54.143Z,98943.28
2023-12-13T13:56:56.639Z,98944.84
2023-12-13T14:00:03.828Z,98946.69
2023-12-13T14:03:15.565Z,98952.88
2023-12-13T14:06:20.267Z,98945.88
2023-12-13T14:09:27.718Z,98938.13
2023-12-13T14:12:33.380Z,98945.00
2023-12-13T14:15:38.057Z,98949.25
2023-12-13T14:18:43.882Z,98935.50
2023-12-13T14:21:46.450Z,98941.53
2023-12-13T14:24:51.373Z,98951.97
2023-12-13T14:27:57.812Z,98949.16
2023-12-13T14:31:00.425Z,98954.34
2023-12-13T14:34:08.681Z,98953.31
2023-12-13T14:37:12.042Z,98946.53
2023-12-13T14:40:16.383Z,98947.31
2023-12-13T14:43:19.790Z,98954.28
2023-12-13T14:46:22.574Z,98967.31
2023-12-13T14:49:27.404Z,98966.47
2023-12-13T14:52:31.656Z,98961.94
2023-12-13T14:55:37.566Z,98961.09
2023-12-13T14:58:42.402Z,98946.91
2023-12-13T15:01:47.340Z,98950.38
2023-12-13T15:04:49.997Z,98962.41
2023-12-13T15:07:57.444Z,98957.09
2023-12-13T15:11:00.147Z,98957.88
2023-12-13T15:14:02.754Z,98956.97
2023-12-13T15:17:05.855Z,98950.81
2023-12-13T15:20:09.643Z,98942.28
2023-12-13T15:23:12.430Z,98941.59
2023-12-13T15:26:17.036Z,98940.91
2023-12-13T15:29:22.247Z,98942.47
2023-12-13T15:32:24.737Z,98946.56
2023-12-13T15:35:27.264Z,98949.38
2023-12-13T15:38:29.870Z,98942.53
2023-12-13T15:41:34.883Z,98929.56
2023-12-13T15:44:37.766Z,98920.16
2023-12-13T15:47:40.468Z,98925.31
2023-12-13T15:50:45.084Z,98915.69
2023-12-13T15:53:47.544Z,98919.84
2023-12-13T15:56:50.059Z,98912.78
2023-12-13T15:59:52.518Z,98922.97
2023-12-13T16:02:55.217Z,98936.94
2023-12-13T16:05:57.851Z,98931.44
2023-12-13T16:09:00.405Z,98933.84
2023-12-13T16:12:03.063Z,98932.09
2023-12-13T16:15:05.926Z,98938.97
2023-12-13T16:18:14.251Z,98951.19
2023-12-13T16:21:17.437Z,98950.22
2023-12-13T16:24:19.853Z,98958.91
2023-12-13T16:27:22.284Z,98954.47
2023-12-13T16:30:26.988Z,98956.34
2023-12-13T16:33:34.244Z,98948.59
2023-12-13T16:36:37.629Z,98942.44
2023-12-13T16:39:42.525Z,98936.78
2023-12-13T16:42:47.264Z,98934.94
2023-12-13T16:45:52.030Z,98927.00
2023-12-13T16:48:58.014Z,98940.94
2023-12-13T16:52:05.720Z,98933.16
2023-12-13T16:55:10.337Z,98928.09
2023-12-13T16:58:46.597Z,98920.06
2023-12-13T17:05:45.738Z,98919.53
2023-12-13T17:09:07.558Z,98925.38
2023-12-13T17:12:37.500Z,98933.38
2023-12-13T17:19:43.396Z,98910.06
2023-12-13T17:23:34.345Z,98918.66
2023-12-13T17:35:09.571Z,98918.72
2023-12-13T17:38:20.892Z,98927.41
2023-12-13T17:41:51.406Z,98937.72
2023-12-13T17:45:12.381Z,98927.31
2023-12-13T17:48:15.411Z,98932.59
2023-12-13T17:59:58.252Z,98942.78
2023-12-13T18:07:52.602Z,98942.03
2023-12-13T18:15:19.294Z,98926.44
2023-12-13T18:18:24.363Z,98927.97
2023-12-13T18:22:26.115Z,98919.34
2023-12-13T18:25:48.489Z,98930.72
2023-12-13T18:29:11.936Z,98914.44
2023-12-13T18:32:29.433Z,98923.84
2023-12-13T18:35:47.241Z,98930.69
2023-12-13T18:38:51.909Z,98925.56
2023-12-13T18:41:56.660Z,98922.97
2023-12-13T18:45:04.252Z,98925.69
2023-12-13T18:48:07.368Z,98911.97
2023-12-13T18:51:12.081Z,98915.44
2023-12-13T18:54:14.442Z,98934.44
2023-12-13T18:57:21.126Z,98937.91
2023-12-13T19:00:25.733Z,98943.16
2023-12-13T19:03:34.005Z,98942.47
2023-12-13T19:06:36.740Z,98949.38
2023-12-13T19:09:39.504Z,98948.50
2023-12-13T19:12:41.961Z,98953.72
2023-12-13T19:15:44.981Z,98961.44
2023-12-13T19:18:49.831Z,98958.41
2023-12-13T19:21:52.362Z,98958.44
2023-12-13T19:24:55.124Z,98962.84
2023-12-13T19:27:57.646Z,98969.94
2023-12-13T19:31:00.117Z,98982.75
2023-12-13T19:34:02.788Z,98996.00
2023-12-13T19:37:10.056Z,98987.25
2023-12-13T19:40:13.090Z,98995.16
2023-12-13T19:43:15.649Z,98991.75
2023-12-13T19:46:18.349Z,98983.94
2023-12-13T19:49:26.941Z,98984.81
2023-12-13T19:52:29.764Z,98966.53
2023-12-13T19:55:32.389Z,98987.13
2023-12-13T19:58:35.161Z,99007.09
2023-12-13T20:01:37.661Z,99004.81
2023-12-13T20:04:40.145Z,99011.13
2023-12-13T20:07:49.752Z,99009.38
2023-12-13T20:10:52.295Z,99012.91
2023-12-13T20:13:57.250Z,99021.66
2023-12-13T20:17:01.246Z,99019.00
2023-12-13T20:20:07.917Z,99010.31
2023-12-13T20:23:10.498Z,99008.50
2023-12-13T20:26:17.603Z,99011.13
2023-12-13T20:29:22.330Z,99001.72
2023-12-13T20:32:24.776Z,98999.00
2023-12-13T20:35:32.429Z,98984.44
2023-12-13T20:38:35.038Z,98998.28
2023-12-13T20:41:37.481Z,99004.34
2023-12-13T20:44:42.286Z,99011.41
2023-12-13T20:47:45.354Z,99011.44
2023-12-13T20:50:50.037Z,99017.19
2023-12-13T20:53:54.868Z,98999.19
2023-12-13T20:56:57.211Z,99005.34
2023-12-13T21:00:01.993Z,98998.50
2023-12-13T21:03:04.825Z,99007.94
2023-12-13T21:06:09.832Z,99003.63
2023-12-13T21:09:12.385Z,99010.56
2023-12-13T21:12:19.464Z,99001.59
2023-12-13T21:15:21.888Z,98998.22
2023-12-13T21:18:26.544Z,98990.41
2023-12-13T21:21:29.156Z,98987.06
2023-12-13T21:24:31.545Z,98979.28
2023-12-13T21:27:36.701Z,98983.78
2023-12-13T21:30:39.266Z,98997.56
2023-12-13T21:33:41.828Z,98985.44
2023-12-13T21:36:50.222Z,98986.31
2023-12-13T21:39:55.217Z,98976.00
2023-12-13T21:43:00.267Z,98975.13
2023-12-13T21:46:03.251Z,98975.13
2023-12-13T21:49:05.700Z,98986.28
2023-12-13T21:52:08.144Z,98999.28
2023-12-13T21:55:10.611Z,99007.03
2023-12-13T21:58:12.992Z,99013.63
2023-12-13T22:01:20.281Z,99004.13
2023-12-13T22:04:22.798Z,98994.75
2023-12-13T22:07:25.179Z,99011.81
2023-12-13T22:10:30.724Z,99009.28
2023-12-13T22:13:37.838Z,98998.81
2023-12-13T22:16:44.546Z,98983.28
2023-12-13T22:19:52.631Z,98969.44
2023-12-13T22:22:56.287Z,98964.97
2023-12-13T22:25:58.770Z,98978.81
2023-12-13T22:29:01.534Z,98985.84
2023-12-13T22:32:04.555Z,98996.22
2023-12-13T22:35:12.071Z,98983.28
2023-12-13T22:38:19.831Z,98972.03
2023-12-13T22:41:24.006Z,98976.25
2023-12-13T22:44:26.398Z,98979.06
2023-12-13T22:47:31.238Z,98977.31
2023-12-13T22:50:36.574Z,98972.97
2023-12-13T22:53:44.710Z,98972.75
2023-12-13T22:56:47.126Z,98992.59
2023-12-13T22:59:52.256Z,98987.47
2023-12-13T23:02:57.562Z,98992.69
2023-12-13T23:06:00.771Z,99000.34
2023-12-13T23:09:09.090Z,99018.63
2023-12-13T23:12:11.605Z,99012.78
2023-12-13T23:15:14.166Z,99013.56
2023-12-13T23:18:19.222Z,99020.25
2023-12-13T23:21:21.757Z,99015.34
2023-12-13T23:24:27.179Z,99022.19
2023-12-13T23:27:31.136Z,99025.75
2023-12-13T23:30:33.727Z,99024.84
2023-12-13T23:33:36.191Z,99030.22
2023-12-13T23:36:38.821Z,99037.16
2023-12-13T23:39:41.766Z,99026.75
2023-12-13T23:42:48.872Z,99026.84
2023-12-13T23:45:51.314Z,99026.91
2023-12-13T23:48:54.171Z,99026.91
2023-12-13T23:51:59.494Z,99025.00
2023-12-13T23:55:01.928Z,99019.81
2023-12-13T23:58:06.886Z,99019.81
